»·PEaware :: N384HS KPDX-KSLE

N384HS :: KPDX-KSLE

FLIGHT INFORMATION

Flight Status: Arrived
Operator: Privately registered:
United States
More flights under this callsign
Pilot: Caleb Y. (33394)
Aircraft: CESSNA 172 SKYHAWK
(C172)
More flights by this aircraft type
Origin: KPDX Portland Intl
United States
Destination: KSLE McNary
United States
More flights between these airports :: More routes between these airports
Route: UBG NECIP
File this flight plan on PilotEdge
Remarks: No SID / STAR
Altitude:
(Current/Filed)
4,000ft
Speed:
(Current/Filed)
110kts
Departed: 20-Jan-21 06:56 PM
Arrived: 20-Jan-21 07:49 PM
Distance/Time
Traveled:
44nm/0:52
Distance/Time
To Go:
Arrived

Flight Plot

Page will automatically refresh every two minutes.

Flight plan parsing failed; only flown route is shown


Map Options




Map Legend


Flown Route
Filed Route
Departure Airport
Arrival Airport
Navaid (VOR, NDB)
Fix

Horizontal Profiles

Position Reports

Time Latitude Longitude Heading Altitude Ground
Speed
20-Jan-21 18:42 45.587425 -122.583532 207 20ft 0kts
20-Jan-21 18:43 45.587425 -122.583532 207 20ft 0kts
20-Jan-21 18:44 45.587425 -122.583532 207 20ft 0kts
20-Jan-21 18:45 45.587425 -122.583532 207 20ft 0kts
20-Jan-21 18:46 45.587425 -122.583532 207 20ft 0kts
20-Jan-21 18:47 45.587425 -122.583532 207 20ft 0kts
20-Jan-21 18:48 45.587425 -122.583532 207 20ft 0kts
20-Jan-21 18:49 45.587370 -122.583552 183 20ft 3kts
20-Jan-21 18:50 45.588976 -122.583907 298 20ft 14kts
20-Jan-21 18:51 45.591350 -122.589998 298 20ft 19kts
20-Jan-21 18:52 45.594016 -122.596940 295 23ft 19kts
20-Jan-21 18:53 45.594363 -122.597578 358 23ft 0kts
20-Jan-21 18:54 45.594422 -122.597574 8 23ft 0kts
20-Jan-21 18:55 45.590719 -122.585643 122 208ft 87kts
20-Jan-21 18:56 45.586025 -122.556164 34 1296ft 90kts
20-Jan-21 18:57 45.608396 -122.542595 20 2355ft 88kts
20-Jan-21 18:58 45.631430 -122.529669 16 3300ft 90kts
20-Jan-21 18:59 45.655903 -122.516991 17 3955ft 105kts
20-Jan-21 19:00 45.685684 -122.502384 18 3949ft 118kts
20-Jan-21 19:01 45.716497 -122.487992 359 3916ft 117kts
20-Jan-21 19:02 45.730105 -122.522372 245 3867ft 113kts
20-Jan-21 19:03 45.707119 -122.553028 217 3858ft 113kts
20-Jan-21 19:04 45.680682 -122.578278 211 3821ft 115kts
20-Jan-21 19:05 45.658165 -122.609811 225 3836ft 113kts
20-Jan-21 19:06 45.636358 -122.641713 223 3884ft 112kts
20-Jan-21 19:07 45.614015 -122.671996 220 3988ft 111kts
20-Jan-21 19:08 45.589749 -122.700260 215 4050ft 111kts
20-Jan-21 19:09 45.564789 -122.727076 219 4112ft 112kts
20-Jan-21 19:10 45.539539 -122.755535 218 4059ft 117kts
20-Jan-21 19:11 45.514202 -122.784905 216 3995ft 118kts
20-Jan-21 19:12 45.488440 -122.812524 217 4005ft 115kts
20-Jan-21 19:13 45.472870 -122.832522 224 4016ft 115kts
20-Jan-21 19:14 45.454317 -122.858391 222 3987ft 115kts
20-Jan-21 19:15 45.431065 -122.889589 220 3972ft 115kts
20-Jan-21 19:16 45.406720 -122.919294 221 3958ft 115kts
20-Jan-21 19:17 45.382420 -122.948734 218 3944ft 115kts
20-Jan-21 19:18 45.356582 -122.975128 204 3958ft 113kts
20-Jan-21 19:19 45.325371 -122.977688 171 3975ft 112kts
20-Jan-21 19:20 45.294394 -122.972014 171 4031ft 112kts
20-Jan-21 19:21 45.263447 -122.967041 169 4076ft 112kts
20-Jan-21 19:22 45.232313 -122.960148 168 4091ft 113kts
20-Jan-21 19:23 45.201095 -122.950162 170 4023ft 118kts
20-Jan-21 19:24 45.168997 -122.944651 169 4015ft 114kts
20-Jan-21 19:25 45.137459 -122.938309 173 4029ft 113kts
20-Jan-21 19:26 45.105975 -122.933806 170 4034ft 114kts
20-Jan-21 19:27 45.074287 -122.928610 173 4031ft 114kts
20-Jan-21 19:28 45.042826 -122.923489 172 4039ft 114kts
20-Jan-21 19:29 45.011585 -122.915592 172 4053ft 114kts
20-Jan-21 19:30 44.980315 -122.908436 170 4056ft 115kts
20-Jan-21 19:31 44.948408 -122.902541 171 4083ft 118kts
20-Jan-21 19:32 44.915781 -122.894947 167 4053ft 121kts
20-Jan-21 19:33 44.882593 -122.887150 173 4014ft 120kts
20-Jan-21 19:34 44.849910 -122.882554 171 4053ft 119kts
20-Jan-21 19:35 44.817301 -122.875445 171 4053ft 120kts
20-Jan-21 19:36 44.784455 -122.869450 174 4067ft 119kts
20-Jan-21 19:37 44.751568 -122.864234 173 4067ft 118kts
20-Jan-21 19:38 44.718695 -122.863120 191 4051ft 120kts
20-Jan-21 19:39 44.690115 -122.855804 101 4079ft 117kts
20-Jan-21 19:40 44.713173 -122.851278 324 3996ft 119kts
20-Jan-21 19:41 44.741442 -122.872921 332 3839ft 106kts
20-Jan-21 19:42 44.766627 -122.889440 334 3246ft 102kts
20-Jan-21 19:43 44.793365 -122.907818 331 2351ft 112kts
20-Jan-21 19:44 44.819033 -122.927609 334 2091ft 98kts
20-Jan-21 19:45 44.845219 -122.949282 331 1533ft 113kts
20-Jan-21 19:46 44.872081 -122.970949 329 966ft 110kts
20-Jan-21 19:47 44.899146 -122.992813 329 347ft 109kts
20-Jan-21 19:48 44.911547 -123.002949 327 201ft 17kts

Navigation Log

Ident Type
Flight plan parsing failed, navigation log unavailable